^^
Station Historical Data
Daily Summary for September 5, 2017 Units:  Metric    English   Both
« Previous Day
Next Day »
Daily Weekly Monthly Yearly Custom
  High: Low: Average:
Temperature: 15.2 °C 9.9 °C 12.3 °C
Dew Point: 8.9 °C 7.1 °C 7.9 °C
Humidity: 83% 66% 75%
Wind Speed: 28.8km/h 4.7km/h 16.4km/h
Wind Gust: 35.4km/h - -
Wind- - SSW
Pressure: 1017.2 hPa 1012.1 hPa -
Precipitation: 0 mm    
Historical Graphs
 
 
Tabular Data for September 5, 2017
Time Temperature Dew Point Pressure Wind Wind Speed Wind Gust Humidity Rainfall Rate (Hourly) solar Conditions
16:21 15.2 °C 8.9 °C 1012.1 hPa South 24.1 km/h 33.8 km/h 66% 0 mm 35.0 W/m2
16:43 14.7 °C 8.6 °C 1012.8 hPa SSW 28.8 km/h 35.4 km/h 67% 0 mm 28.0 W/m2
16:51 14.4 °C 8.3 °C 1012.4 hPa SSW 20.9 km/h 30.6 km/h 67% 0 mm 32.0 W/m2
17:06 14.2 °C 8.6 °C 1013.1 hPa SW 28.8 km/h 33.8 km/h 69% 0 mm 98.0 W/m2
17:21 14.1 °C 8.3 °C 1013.1 hPa SSW 22.7 km/h 29 km/h 68% 0 mm 16.0 W/m2
17:43 13.7 °C 8.9 °C 1014.1 hPa SSW 24.1 km/h 32.2 km/h 73% 0 mm 53.0 W/m2
17:56 13.3 °C 8.6 °C 1013.8 hPa South 19.5 km/h 30.6 km/h 73% 0 mm 21.0 W/m2
18:06 13.2 °C 8.7 °C 1013.8 hPa SSW 24.1 km/h 27.4 km/h 74% 0 mm 7.0 W/m2
18:11 13.2 °C 8.5 °C 1014.1 hPa SSW 17.7 km/h 22.5 km/h 73% 0 mm 0.0 W/m2
18:26 13.2 °C 8.3 °C 1014.1 hPa SSW 22.7 km/h 24.1 km/h 72% 0 mm 0.0 W/m2
18:33 13.2 °C 8.3 °C 1014.1 hPa SSW 22.7 km/h 24.1 km/h 72% 0 mm 0.0 W/m2
18:41 13.2 °C 8.1 °C 1014.4 hPa SSW 19.5 km/h 29 km/h 71% 0 mm 0.0 W/m2
19:02 13.2 °C 8.1 °C 1014.8 hPa SSW 17.7 km/h 25.7 km/h 71% 0 mm 0.0 W/m2
19:23 13 °C 7.9 °C 1014.4 hPa SSW 19.5 km/h 25.7 km/h 71% 0 mm 0.0 W/m2
19:37 12.9 °C 8 °C 1014.8 hPa SSW 17.7 km/h 25.7 km/h 72% 0 mm 0.0 W/m2
19:47 12.8 °C 8.1 °C 1015.1 hPa SSW 16.3 km/h 24.1 km/h 73% 0 mm 0.0 W/m2
20:06 12.7 °C 8.2 °C 1015.5 hPa SSW 28.8 km/h 29 km/h 74% 0 mm 0.0 W/m2
20:12 12.6 °C 7.9 °C 1015.5 hPa South 13 km/h 16.1 km/h 73% 0 mm 0.0 W/m2
20:32 12.6 °C 8.1 °C 1015.8 hPa SSW 13 km/h 19.3 km/h 74% 0 mm 0.0 W/m2
20:48 12.4 °C 8.5 °C 1016.1 hPa SSW 14.3 km/h 16.1 km/h 77% 0 mm 0.0 W/m2
21:12 12.3 °C 8 °C 1016.8 hPa South 14.3 km/h 20.9 km/h 75% 0 mm 0.0 W/m2
21:27 12.1 °C 8 °C 1016.8 hPa SSW 14.3 km/h 19.3 km/h 76% 0 mm 0.0 W/m2
21:46 11.7 °C 7.6 °C 1016.8 hPa SSW 14.3 km/h 19.3 km/h 76% 0 mm 0.0 W/m2
21:53 11.5 °C 7.6 °C 1016.8 hPa SSW 9.7 km/h 14.5 km/h 77% 0 mm 0.0 W/m2
22:53 10.7 °C 7.2 °C 1017.2 hPa SSW 7.9 km/h 14.5 km/h 79% 0 mm 0.0 W/m2
22:58 10.6 °C 7.3 °C 1017.2 hPa SSW 7.9 km/h 9.7 km/h 80% 0 mm 0.0 W/m2
23:03 10.4 °C 7.1 °C 1017.2 hPa SSW 7.9 km/h 8 km/h 80% 0 mm 0.0 W/m2
23:09 10.3 °C 7.2 °C 1017.2 hPa SSW 7.9 km/h 8 km/h 81% 0 mm 0.0 W/m2
23:18 10.2 °C 7.1 °C 1017.2 hPa SSW 9.7 km/h 9.7 km/h 81% 0 mm 0.0 W/m2
23:29 9.9 °C 7.1 °C 1017.2 hPa SSW 11.1 km/h 12.9 km/h 83% 0 mm 0.0 W/m2
23:44 10.1 °C 7.2 °C 1017.2 hPa SSW 9.7 km/h 11.3 km/h 82% 0 mm 0.0 W/m2
23:49 10.1 °C 7.2 °C 1017.2 hPa SSW 11.1 km/h 11.3 km/h 82% 0 mm 0.0 W/m2
23:54 10.1 °C 7.3 °C 1017.2 hPa SSW 9.7 km/h 11.3 km/h 83% 0 mm 0.0 W/m2
23:59 10.1 °C 7.3 °C 1017.2 hPa SSW 4.7 km/h 6.4 km/h 83% 0 mm 0.0 W/m2
Canyon Roadhouse, Fishriver Canyon, Namibia
Compliments of Weather Underground - 1.75 mb